sensor_id;sensor_type;location;lat;lon;timestamp;P1;durP1;ratioP1;P2;durP2;ratioP2
74679;SDS011;63211;48.548;2.704;2024-01-10T00:00:46;4.53;;;1.58;;
74679;SDS011;63211;48.548;2.704;2024-01-10T00:03:12;4.00;;;1.70;;
74679;SDS011;63211;48.548;2.704;2024-01-10T00:05:39;3.75;;;1.73;;
74679;SDS011;63211;48.548;2.704;2024-01-10T00:08:05;2.83;;;1.35;;
74679;SDS011;63211;48.548;2.704;2024-01-10T00:10:31;4.20;;;1.45;;
74679;SDS011;63211;48.548;2.704;2024-01-10T00:12:57;3.38;;;1.45;;
74679;SDS011;63211;48.548;2.704;2024-01-10T00:15:25;2.53;;;1.60;;
74679;SDS011;63211;48.548;2.704;2024-01-10T00:17:52;2.42;;;1.50;;
74679;SDS011;63211;48.548;2.704;2024-01-10T00:20:18;2.97;;;1.30;;
74679;SDS011;63211;48.548;2.704;2024-01-10T00:22:45;3.10;;;1.50;;
74679;SDS011;63211;48.548;2.704;2024-01-10T00:25:12;2.38;;;1.38;;
74679;SDS011;63211;48.548;2.704;2024-01-10T00:27:38;3.00;;;1.40;;
74679;SDS011;63211;48.548;2.704;2024-01-10T00:30:05;3.85;;;2.30;;
74679;SDS011;63211;48.548;2.704;2024-01-10T00:32:35;3.13;;;1.45;;
74679;SDS011;63211;48.548;2.704;2024-01-10T00:35:01;3.42;;;1.33;;
74679;SDS011;63211;48.548;2.704;2024-01-10T00:37:28;3.15;;;1.30;;
74679;SDS011;63211;48.548;2.704;2024-01-10T00:39:55;2.55;;;1.25;;
74679;SDS011;63211;48.548;2.704;2024-01-10T00:42:21;2.90;;;1.60;;
74679;SDS011;63211;48.548;2.704;2024-01-10T00:44:48;2.55;;;1.23;;
74679;SDS011;63211;48.548;2.704;2024-01-10T00:47:15;3.83;;;1.40;;
74679;SDS011;63211;48.548;2.704;2024-01-10T00:49:43;3.30;;;1.35;;
74679;SDS011;63211;48.548;2.704;2024-01-10T00:52:10;4.07;;;1.40;;
74679;SDS011;63211;48.548;2.704;2024-01-10T00:54:36;3.10;;;1.60;;
74679;SDS011;63211;48.548;2.704;2024-01-10T00:57:03;4.93;;;1.73;;
74679;SDS011;63211;48.548;2.704;2024-01-10T00:59:30;2.80;;;1.17;;
74679;SDS011;63211;48.548;2.704;2024-01-10T01:01:56;3.15;;;1.40;;
74679;SDS011;63211;48.548;2.704;2024-01-10T01:04:23;2.55;;;1.50;;
74679;SDS011;63211;48.548;2.704;2024-01-10T01:06:51;2.70;;;1.40;;
74679;SDS011;63211;48.548;2.704;2024-01-10T01:09:17;2.72;;;1.30;;
74679;SDS011;63211;48.548;2.704;2024-01-10T01:11:44;2.83;;;1.38;;
74679;SDS011;63211;48.548;2.704;2024-01-10T01:14:10;2.70;;;1.30;;
74679;SDS011;63211;48.548;2.704;2024-01-10T01:16:37;2.35;;;1.30;;
74679;SDS011;63211;48.548;2.704;2024-01-10T01:19:04;2.78;;;1.20;;
74679;SDS011;63211;48.548;2.704;2024-01-10T01:21:30;2.83;;;1.40;;
74679;SDS011;63211;48.548;2.704;2024-01-10T01:23:58;2.30;;;1.08;;
74679;SDS011;63211;48.548;2.704;2024-01-10T01:26:25;2.13;;;1.27;;
74679;SDS011;63211;48.548;2.704;2024-01-10T01:28:51;3.35;;;1.75;;
74679;SDS011;63211;48.548;2.704;2024-01-10T01:31:18;2.75;;;1.00;;
74679;SDS011;63211;48.548;2.704;2024-01-10T01:33:44;4.05;;;1.50;;
74679;SDS011;63211;48.548;2.704;2024-01-10T01:36:11;3.20;;;1.40;;
74679;SDS011;63211;48.548;2.704;2024-01-10T01:38:38;2.97;;;1.42;;
74679;SDS011;63211;48.548;2.704;2024-01-10T01:41:06;2.90;;;1.17;;
74679;SDS011;63211;48.548;2.704;2024-01-10T01:43:32;2.30;;;1.23;;
74679;SDS011;63211;48.548;2.704;2024-01-10T01:46:00;3.08;;;1.40;;
74679;SDS011;63211;48.548;2.704;2024-01-10T01:48:27;4.18;;;1.55;;
74679;SDS011;63211;48.548;2.704;2024-01-10T01:50:57;3.63;;;1.60;;
74679;SDS011;63211;48.548;2.704;2024-01-10T01:53:28;3.17;;;1.55;;
74679;SDS011;63211;48.548;2.704;2024-01-10T01:55:55;2.58;;;1.30;;
74679;SDS011;63211;48.548;2.704;2024-01-10T01:58:23;2.63;;;1.52;;
74679;SDS011;63211;48.548;2.704;2024-01-10T02:00:50;3.47;;;2.03;;
74679;SDS011;63211;48.548;2.704;2024-01-10T02:03:18;2.88;;;1.23;;
74679;SDS011;63211;48.548;2.704;2024-01-10T02:05:45;2.22;;;1.58;;
74679;SDS011;63211;48.548;2.704;2024-01-10T02:08:12;3.15;;;1.60;;
74679;SDS011;63211;48.548;2.704;2024-01-10T02:10:39;3.08;;;1.63;;
74679;SDS011;63211;48.548;2.704;2024-01-10T02:13:06;3.88;;;1.40;;
74679;SDS011;63211;48.548;2.704;2024-01-10T02:15:35;3.15;;;1.27;;
74679;SDS011;63211;48.548;2.704;2024-01-10T02:18:02;2.88;;;1.25;;
74679;SDS011;63211;48.548;2.704;2024-01-10T02:20:30;3.05;;;1.60;;
74679;SDS011;63211;48.548;2.704;2024-01-10T02:22:57;3.60;;;1.60;;
74679;SDS011;63211;48.548;2.704;2024-01-10T02:25:25;2.92;;;1.30;;
74679;SDS011;63211;48.548;2.704;2024-01-10T02:27:51;3.17;;;1.33;;
74679;SDS011;63211;48.548;2.704;2024-01-10T02:30:18;2.88;;;1.30;;
74679;SDS011;63211;48.548;2.704;2024-01-10T02:32:44;2.33;;;1.08;;
74679;SDS011;63211;48.548;2.704;2024-01-10T02:35:11;3.22;;;1.50;;
74679;SDS011;63211;48.548;2.704;2024-01-10T02:37:38;3.38;;;1.38;;
74679;SDS011;63211;48.548;2.704;2024-01-10T02:40:05;2.72;;;1.48;;
74679;SDS011;63211;48.548;2.704;2024-01-10T02:42:33;2.92;;;1.30;;
74679;SDS011;63211;48.548;2.704;2024-01-10T02:45:01;2.63;;;1.42;;
74679;SDS011;63211;48.548;2.704;2024-01-10T02:47:28;4.03;;;1.65;;
74679;SDS011;63211;48.548;2.704;2024-01-10T02:49:55;2.47;;;1.27;;
74679;SDS011;63211;48.548;2.704;2024-01-10T02:52:21;3.20;;;1.60;;
74679;SDS011;63211;48.548;2.704;2024-01-10T02:54:48;2.35;;;1.38;;
74679;SDS011;63211;48.548;2.704;2024-01-10T02:57:14;3.63;;;1.40;;
74679;SDS011;63211;48.548;2.704;2024-01-10T02:59:42;2.67;;;1.38;;
74679;SDS011;63211;48.548;2.704;2024-01-10T03:02:09;2.63;;;1.33;;
74679;SDS011;63211;48.548;2.704;2024-01-10T03:04:35;3.17;;;1.60;;
74679;SDS011;63211;48.548;2.704;2024-01-10T03:07:02;3.53;;;1.30;;
74679;SDS011;63211;48.548;2.704;2024-01-10T03:09:29;2.97;;;1.30;;
74679;SDS011;63211;48.548;2.704;2024-01-10T03:11:55;3.72;;;1.70;;
74679;SDS011;63211;48.548;2.704;2024-01-10T03:14:22;3.17;;;1.58;;
74679;SDS011;63211;48.548;2.704;2024-01-10T03:16:50;3.03;;;1.40;;
74679;SDS011;63211;48.548;2.704;2024-01-10T03:19:18;4.90;;;1.50;;
74679;SDS011;63211;48.548;2.704;2024-01-10T03:21:44;2.90;;;1.45;;
74679;SDS011;63211;48.548;2.704;2024-01-10T03:24:11;2.92;;;1.50;;
74679;SDS011;63211;48.548;2.704;2024-01-10T03:26:38;2.45;;;1.50;;
74679;SDS011;63211;48.548;2.704;2024-01-10T03:29:04;3.60;;;1.70;;
74679;SDS011;63211;48.548;2.704;2024-01-10T03:31:31;3.20;;;1.48;;
74679;SDS011;63211;48.548;2.704;2024-01-10T03:33:59;3.17;;;1.50;;
74679;SDS011;63211;48.548;2.704;2024-01-10T03:36:25;2.70;;;1.30;;
74679;SDS011;63211;48.548;2.704;2024-01-10T03:38:52;2.58;;;1.08;;
74679;SDS011;63211;48.548;2.704;2024-01-10T03:41:20;3.60;;;1.65;;
74679;SDS011;63211;48.548;2.704;2024-01-10T03:43:46;2.75;;;1.08;;
74679;SDS011;63211;48.548;2.704;2024-01-10T03:46:13;3.13;;;1.40;;
74679;SDS011;63211;48.548;2.704;2024-01-10T03:48:39;3.03;;;1.42;;
74679;SDS011;63211;48.548;2.704;2024-01-10T03:51:14;2.13;;;1.40;;
74679;SDS011;63211;48.548;2.704;2024-01-10T03:53:40;3.15;;;1.50;;
74679;SDS011;63211;48.548;2.704;2024-01-10T03:56:07;2.90;;;1.40;;
74679;SDS011;63211;48.548;2.704;2024-01-10T03:58:34;3.30;;;1.63;;
74679;SDS011;63211;48.548;2.704;2024-01-10T04:01:03;2.45;;;1.30;;
74679;SDS011;63211;48.548;2.704;2024-01-10T04:03:31;3.55;;;1.45;;
74679;SDS011;63211;48.548;2.704;2024-01-10T04:05:57;2.67;;;1.58;;
74679;SDS011;63211;48.548;2.704;2024-01-10T04:08:25;3.25;;;1.60;;
74679;SDS011;63211;48.548;2.704;2024-01-10T04:10:52;3.80;;;1.48;;
74679;SDS011;63211;48.548;2.704;2024-01-10T04:13:19;2.55;;;1.25;;
74679;SDS011;63211;48.548;2.704;2024-01-10T04:15:45;2.65;;;1.40;;
74679;SDS011;63211;48.548;2.704;2024-01-10T04:18:12;2.90;;;1.70;;
74679;SDS011;63211;48.548;2.704;2024-01-10T04:20:38;3.00;;;1.48;;
74679;SDS011;63211;48.548;2.704;2024-01-10T04:23:05;2.55;;;1.02;;
74679;SDS011;63211;48.548;2.704;2024-01-10T04:25:33;2.65;;;1.42;;
74679;SDS011;63211;48.548;2.704;2024-01-10T04:27:59;3.08;;;1.52;;
74679;SDS011;63211;48.548;2.704;2024-01-10T04:30:26;3.42;;;1.40;;
74679;SDS011;63211;48.548;2.704;2024-01-10T04:32:53;2.38;;;1.25;;
74679;SDS011;63211;48.548;2.704;2024-01-10T04:35:19;3.25;;;1.23;;
74679;SDS011;63211;48.548;2.704;2024-01-10T04:37:46;2.75;;;1.30;;
74679;SDS011;63211;48.548;2.704;2024-01-10T04:40:13;3.10;;;1.30;;
74679;SDS011;63211;48.548;2.704;2024-01-10T04:42:41;3.50;;;1.50;;
74679;SDS011;63211;48.548;2.704;2024-01-10T04:45:07;3.30;;;1.25;;
74679;SDS011;63211;48.548;2.704;2024-01-10T04:47:34;2.30;;;1.27;;
74679;SDS011;63211;48.548;2.704;2024-01-10T04:50:01;3.00;;;1.40;;
74679;SDS011;63211;48.548;2.704;2024-01-10T04:52:28;2.60;;;1.42;;
74679;SDS011;63211;48.548;2.704;2024-01-10T04:54:54;3.28;;;1.67;;
74679;SDS011;63211;48.548;2.704;2024-01-10T04:57:21;2.00;;;0.90;;
74679;SDS011;63211;48.548;2.704;2024-01-10T04:59:49;3.80;;;1.30;;
74679;SDS011;63211;48.548;2.704;2024-01-10T05:02:15;2.47;;;1.50;;
74679;SDS011;63211;48.548;2.704;2024-01-10T05:04:42;3.63;;;1.63;;
74679;SDS011;63211;48.548;2.704;2024-01-10T05:07:09;2.75;;;1.20;;
74679;SDS011;63211;48.548;2.704;2024-01-10T05:09:35;3.05;;;1.40;;
74679;SDS011;63211;48.548;2.704;2024-01-10T05:12:02;3.10;;;1.33;;
74679;SDS011;63211;48.548;2.704;2024-01-10T05:14:29;3.15;;;1.52;;
74679;SDS011;63211;48.548;2.704;2024-01-10T05:16:57;2.30;;;1.17;;
74679;SDS011;63211;48.548;2.704;2024-01-10T05:19:23;3.05;;;1.50;;
74679;SDS011;63211;48.548;2.704;2024-01-10T05:21:50;2.88;;;1.30;;
74679;SDS011;63211;48.548;2.704;2024-01-10T05:24:17;2.00;;;1.05;;
74679;SDS011;63211;48.548;2.704;2024-01-10T05:26:44;4.13;;;1.70;;
74679;SDS011;63211;48.548;2.704;2024-01-10T05:29:11;2.40;;;1.35;;
74679;SDS011;63211;48.548;2.704;2024-01-10T05:31:37;3.25;;;1.17;;
74679;SDS011;63211;48.548;2.704;2024-01-10T05:34:05;2.47;;;1.30;;
74679;SDS011;63211;48.548;2.704;2024-01-10T05:36:32;3.38;;;1.48;;
74679;SDS011;63211;48.548;2.704;2024-01-10T05:38:58;2.35;;;1.08;;
74679;SDS011;63211;48.548;2.704;2024-01-10T05:41:25;3.78;;;1.27;;
74679;SDS011;63211;48.548;2.704;2024-01-10T05:43:52;3.40;;;1.30;;
74679;SDS011;63211;48.548;2.704;2024-01-10T05:46:19;3.47;;;1.42;;
74679;SDS011;63211;48.548;2.704;2024-01-10T05:48:45;2.72;;;1.25;;
74679;SDS011;63211;48.548;2.704;2024-01-10T05:51:14;3.17;;;1.20;;
74679;SDS011;63211;48.548;2.704;2024-01-10T05:53:41;2.65;;;1.35;;
74679;SDS011;63211;48.548;2.704;2024-01-10T05:56:08;3.13;;;1.40;;
74679;SDS011;63211;48.548;2.704;2024-01-10T05:58:34;2.50;;;1.30;;
74679;SDS011;63211;48.548;2.704;2024-01-10T06:01:01;2.40;;;1.00;;
74679;SDS011;63211;48.548;2.704;2024-01-10T06:03:28;2.88;;;1.20;;
74679;SDS011;63211;48.548;2.704;2024-01-10T06:05:55;3.83;;;2.28;;
74679;SDS011;63211;48.548;2.704;2024-01-10T06:08:23;3.60;;;1.50;;
74679;SDS011;63211;48.548;2.704;2024-01-10T06:10:50;3.60;;;1.42;;
74679;SDS011;63211;48.548;2.704;2024-01-10T06:13:17;3.42;;;1.42;;
74679;SDS011;63211;48.548;2.704;2024-01-10T06:15:44;2.95;;;1.38;;
74679;SDS011;63211;48.548;2.704;2024-01-10T06:18:10;4.68;;;1.38;;
74679;SDS011;63211;48.548;2.704;2024-01-10T06:20:37;4.07;;;1.92;;
74679;SDS011;63211;48.548;2.704;2024-01-10T06:23:04;6.40;;;2.40;;
74679;SDS011;63211;48.548;2.704;2024-01-10T06:25:32;4.00;;;2.28;;
74679;SDS011;63211;48.548;2.704;2024-01-10T06:27:59;4.20;;;1.88;;
74679;SDS011;63211;48.548;2.704;2024-01-10T06:30:25;6.10;;;1.88;;
74679;SDS011;63211;48.548;2.704;2024-01-10T06:32:52;3.85;;;1.80;;
74679;SDS011;63211;48.548;2.704;2024-01-10T06:35:18;5.60;;;1.85;;
74679;SDS011;63211;48.548;2.704;2024-01-10T06:37:45;3.17;;;1.40;;
74679;SDS011;63211;48.548;2.704;2024-01-10T06:40:12;3.72;;;1.50;;
74679;SDS011;63211;48.548;2.704;2024-01-10T06:42:40;2.88;;;1.83;;
74679;SDS011;63211;48.548;2.704;2024-01-10T06:45:07;3.25;;;1.40;;
74679;SDS011;63211;48.548;2.704;2024-01-10T06:47:34;3.28;;;1.70;;
74679;SDS011;63211;48.548;2.704;2024-01-10T06:50:00;3.83;;;1.73;;
74679;SDS011;63211;48.548;2.704;2024-01-10T06:52:27;3.92;;;1.63;;
74679;SDS011;63211;48.548;2.704;2024-01-10T06:54:54;3.25;;;1.65;;
74679;SDS011;63211;48.548;2.704;2024-01-10T06:57:20;3.03;;;1.60;;
74679;SDS011;63211;48.548;2.704;2024-01-10T06:59:48;2.92;;;1.45;;
74679;SDS011;63211;48.548;2.704;2024-01-10T07:02:15;3.50;;;1.50;;
74679;SDS011;63211;48.548;2.704;2024-01-10T07:04:42;5.35;;;1.40;;
74679;SDS011;63211;48.548;2.704;2024-01-10T07:07:08;3.42;;;1.98;;
74679;SDS011;63211;48.548;2.704;2024-01-10T07:09:36;2.97;;;1.45;;
74679;SDS011;63211;48.548;2.704;2024-01-10T07:12:04;5.57;;;1.92;;
74679;SDS011;63211;48.548;2.704;2024-01-10T07:14:31;4.80;;;1.92;;
74679;SDS011;63211;48.548;2.704;2024-01-10T07:16:59;5.55;;;1.85;;
74679;SDS011;63211;48.548;2.704;2024-01-10T07:19:26;4.28;;;2.10;;
74679;SDS011;63211;48.548;2.704;2024-01-10T07:21:52;4.47;;;2.25;;
74679;SDS011;63211;48.548;2.704;2024-01-10T07:24:20;4.07;;;2.08;;
74679;SDS011;63211;48.548;2.704;2024-01-10T07:26:47;6.35;;;2.15;;
74679;SDS011;63211;48.548;2.704;2024-01-10T07:29:13;3.40;;;1.88;;
74679;SDS011;63211;48.548;2.704;2024-01-10T07:31:40;4.85;;;2.00;;
74679;SDS011;63211;48.548;2.704;2024-01-10T07:34:08;2.88;;;1.42;;
74679;SDS011;63211;48.548;2.704;2024-01-10T07:36:40;3.75;;;2.10;;
74679;SDS011;63211;48.548;2.704;2024-01-10T07:39:08;4.40;;;2.08;;
74679;SDS011;63211;48.548;2.704;2024-01-10T07:41:35;4.18;;;2.17;;
74679;SDS011;63211;48.548;2.704;2024-01-10T07:44:01;3.35;;;1.88;;
74679;SDS011;63211;48.548;2.704;2024-01-10T07:46:28;5.30;;;2.53;;
74679;SDS011;63211;48.548;2.704;2024-01-10T07:48:55;4.00;;;2.00;;
74679;SDS011;63211;48.548;2.704;2024-01-10T07:51:22;6.32;;;2.53;;
74679;SDS011;63211;48.548;2.704;2024-01-10T07:53:49;4.65;;;2.20;;
74679;SDS011;63211;48.548;2.704;2024-01-10T07:56:16;3.70;;;2.45;;
74679;SDS011;63211;48.548;2.704;2024-01-10T07:58:44;4.07;;;2.20;;
74679;SDS011;63211;48.548;2.704;2024-01-10T08:01:11;4.07;;;2.28;;
74679;SDS011;63211;48.548;2.704;2024-01-10T08:03:38;4.03;;;2.00;;
74679;SDS011;63211;48.548;2.704;2024-01-10T08:06:04;2.90;;;1.67;;
74679;SDS011;63211;48.548;2.704;2024-01-10T08:08:32;4.38;;;1.85;;
74679;SDS011;63211;48.548;2.704;2024-01-10T08:10:59;3.85;;;2.00;;
74679;SDS011;63211;48.548;2.704;2024-01-10T08:13:25;3.75;;;2.22;;
74679;SDS011;63211;48.548;2.704;2024-01-10T08:15:52;4.07;;;2.20;;
74679;SDS011;63211;48.548;2.704;2024-01-10T08:18:19;3.60;;;1.80;;
74679;SDS011;63211;48.548;2.704;2024-01-10T08:20:46;4.35;;;2.20;;
74679;SDS011;63211;48.548;2.704;2024-01-10T08:23:13;3.85;;;2.03;;
74679;SDS011;63211;48.548;2.704;2024-01-10T08:25:41;4.13;;;2.28;;
74679;SDS011;63211;48.548;2.704;2024-01-10T08:28:09;5.70;;;2.40;;
74679;SDS011;63211;48.548;2.704;2024-01-10T08:30:35;4.15;;;2.10;;
74679;SDS011;63211;48.548;2.704;2024-01-10T08:33:02;4.82;;;2.40;;
74679;SDS011;63211;48.548;2.704;2024-01-10T08:35:30;4.20;;;1.90;;
74679;SDS011;63211;48.548;2.704;2024-01-10T08:37:57;4.47;;;2.25;;
74679;SDS011;63211;48.548;2.704;2024-01-10T08:40:23;4.03;;;2.05;;
74679;SDS011;63211;48.548;2.704;2024-01-10T08:42:52;5.32;;;2.13;;
74679;SDS011;63211;48.548;2.704;2024-01-10T08:45:18;4.57;;;1.85;;
74679;SDS011;63211;48.548;2.704;2024-01-10T08:47:45;4.43;;;2.15;;
74679;SDS011;63211;48.548;2.704;2024-01-10T08:50:11;4.72;;;2.20;;
74679;SDS011;63211;48.548;2.704;2024-01-10T08:52:38;3.55;;;1.67;;
74679;SDS011;63211;48.548;2.704;2024-01-10T08:55:05;5.38;;;2.50;;
74679;SDS011;63211;48.548;2.704;2024-01-10T08:57:32;3.50;;;2.05;;
74679;SDS011;63211;48.548;2.704;2024-01-10T09:00:00;6.07;;;2.70;;
74679;SDS011;63211;48.548;2.704;2024-01-10T09:02:26;5.95;;;2.60;;
74679;SDS011;63211;48.548;2.704;2024-01-10T09:04:53;5.72;;;2.58;;
74679;SDS011;63211;48.548;2.704;2024-01-10T09:07:20;4.53;;;2.53;;
74679;SDS011;63211;48.548;2.704;2024-01-10T09:09:46;4.60;;;2.72;;
74679;SDS011;63211;48.548;2.704;2024-01-10T09:12:13;3.60;;;1.92;;
74679;SDS011;63211;48.548;2.704;2024-01-10T09:14:39;3.63;;;2.10;;
74679;SDS011;63211;48.548;2.704;2024-01-10T09:17:07;3.22;;;1.92;;
74679;SDS011;63211;48.548;2.704;2024-01-10T09:19:34;5.80;;;2.45;;
74679;SDS011;63211;48.548;2.704;2024-01-10T09:22:00;4.65;;;2.20;;
74679;SDS011;63211;48.548;2.704;2024-01-10T09:24:27;5.00;;;2.17;;
74679;SDS011;63211;48.548;2.704;2024-01-10T09:26:54;4.57;;;2.45;;
74679;SDS011;63211;48.548;2.704;2024-01-10T09:29:21;4.00;;;2.20;;
74679;SDS011;63211;48.548;2.704;2024-01-10T09:31:48;4.30;;;2.10;;
74679;SDS011;63211;48.548;2.704;2024-01-10T09:34:16;4.13;;;2.17;;
74679;SDS011;63211;48.548;2.704;2024-01-10T09:36:43;3.38;;;1.80;;
74679;SDS011;63211;48.548;2.704;2024-01-10T09:39:09;3.67;;;1.90;;
74679;SDS011;63211;48.548;2.704;2024-01-10T09:41:40;4.13;;;2.50;;
74679;SDS011;63211;48.548;2.704;2024-01-10T09:44:11;4.20;;;2.22;;
74679;SDS011;63211;48.548;2.704;2024-01-10T09:46:38;4.72;;;2.63;;
74679;SDS011;63211;48.548;2.704;2024-01-10T09:49:06;4.18;;;2.20;;
74679;SDS011;63211;48.548;2.704;2024-01-10T09:51:36;5.18;;;2.15;;
74679;SDS011;63211;48.548;2.704;2024-01-10T09:54:03;3.85;;;2.20;;
74679;SDS011;63211;48.548;2.704;2024-01-10T09:56:30;6.18;;;2.80;;
74679;SDS011;63211;48.548;2.704;2024-01-10T09:58:58;5.78;;;2.55;;
74679;SDS011;63211;48.548;2.704;2024-01-10T10:01:26;5.22;;;2.25;;
74679;SDS011;63211;48.548;2.704;2024-01-10T10:03:53;4.18;;;2.25;;
74679;SDS011;63211;48.548;2.704;2024-01-10T10:06:22;4.38;;;2.20;;
74679;SDS011;63211;48.548;2.704;2024-01-10T10:08:50;4.28;;;2.17;;
74679;SDS011;63211;48.548;2.704;2024-01-10T10:11:17;4.53;;;2.53;;
74679;SDS011;63211;48.548;2.704;2024-01-10T10:13:43;4.25;;;2.10;;
74679;SDS011;63211;48.548;2.704;2024-01-10T10:16:10;3.80;;;2.22;;
74679;SDS011;63211;48.548;2.704;2024-01-10T10:18:37;5.18;;;2.13;;
74679;SDS011;63211;48.548;2.704;2024-01-10T10:21:07;3.75;;;1.85;;
74679;SDS011;63211;48.548;2.704;2024-01-10T10:23:35;4.63;;;2.10;;
74679;SDS011;63211;48.548;2.704;2024-01-10T10:26:13;3.55;;;1.80;;
74679;SDS011;63211;48.548;2.704;2024-01-10T10:28:45;4.22;;;2.03;;
74679;SDS011;63211;48.548;2.704;2024-01-10T10:31:12;4.22;;;1.88;;
74679;SDS011;63211;48.548;2.704;2024-01-10T10:33:39;4.10;;;2.05;;
74679;SDS011;63211;48.548;2.704;2024-01-10T10:36:06;3.97;;;2.00;;
74679;SDS011;63211;48.548;2.704;2024-01-10T10:38:33;4.68;;;1.92;;
74679;SDS011;63211;48.548;2.704;2024-01-10T10:41:01;4.60;;;2.25;;
74679;SDS011;63211;48.548;2.704;2024-01-10T10:43:33;3.17;;;1.83;;
74679;SDS011;63211;48.548;2.704;2024-01-10T10:46:02;4.53;;;2.25;;
74679;SDS011;63211;48.548;2.704;2024-01-10T10:48:31;3.38;;;1.63;;
74679;SDS011;63211;48.548;2.704;2024-01-10T10:51:02;4.18;;;2.30;;
74679;SDS011;63211;48.548;2.704;2024-01-10T10:53:32;3.35;;;1.63;;
74679;SDS011;63211;48.548;2.704;2024-01-10T10:55:59;3.95;;;2.40;;
74679;SDS011;63211;48.548;2.704;2024-01-10T10:58:28;4.72;;;1.90;;
74679;SDS011;63211;48.548;2.704;2024-01-10T11:00:58;4.47;;;1.90;;
74679;SDS011;63211;48.548;2.704;2024-01-10T11:03:27;4.63;;;2.22;;
74679;SDS011;63211;48.548;2.704;2024-01-10T11:05:56;3.70;;;2.10;;
74679;SDS011;63211;48.548;2.704;2024-01-10T11:08:25;4.35;;;1.92;;
74679;SDS011;63211;48.548;2.704;2024-01-10T11:10:53;3.75;;;1.95;;
74679;SDS011;63211;48.548;2.704;2024-01-10T11:13:26;3.90;;;1.88;;
74679;SDS011;63211;48.548;2.704;2024-01-10T11:16:02;4.35;;;1.80;;
74679;SDS011;63211;48.548;2.704;2024-01-10T11:18:54;3.70;;;1.92;;
74679;SDS011;63211;48.548;2.704;2024-01-10T11:21:38;4.97;;;2.00;;
74679;SDS011;63211;48.548;2.704;2024-01-10T11:24:20;6.18;;;2.42;;
74679;SDS011;63211;48.548;2.704;2024-01-10T11:26:47;4.65;;;2.25;;
74679;SDS011;63211;48.548;2.704;2024-01-10T11:29:14;4.95;;;2.47;;
74679;SDS011;63211;48.548;2.704;2024-01-10T11:31:43;4.55;;;2.22;;
74679;SDS011;63211;48.548;2.704;2024-01-10T11:34:16;3.85;;;1.90;;
74679;SDS011;63211;48.548;2.704;2024-01-10T11:39:35;4.25;;;1.92;;
74679;SDS011;63211;48.548;2.704;2024-01-10T11:42:02;3.38;;;2.03;;
74679;SDS011;63211;48.548;2.704;2024-01-10T11:44:29;2.78;;;1.90;;
74679;SDS011;63211;48.548;2.704;2024-01-10T11:46:56;3.22;;;2.00;;
74679;SDS011;63211;48.548;2.704;2024-01-10T11:49:24;3.15;;;1.50;;
74679;SDS011;63211;48.548;2.704;2024-01-10T11:51:52;4.20;;;1.90;;
74679;SDS011;63211;48.548;2.704;2024-01-10T11:54:40;3.83;;;1.83;;
74679;SDS011;63211;48.548;2.704;2024-01-10T11:57:08;4.22;;;1.95;;
74679;SDS011;63211;48.548;2.704;2024-01-10T11:59:37;3.70;;;2.10;;
74679;SDS011;63211;48.548;2.704;2024-01-10T12:02:04;3.72;;;1.95;;
74679;SDS011;63211;48.548;2.704;2024-01-10T12:04:31;3.45;;;1.85;;
74679;SDS011;63211;48.548;2.704;2024-01-10T12:06:58;4.53;;;2.00;;
74679;SDS011;63211;48.548;2.704;2024-01-10T12:09:24;3.20;;;1.38;;
74679;SDS011;63211;48.548;2.704;2024-01-10T12:11:51;2.85;;;1.55;;
74679;SDS011;63211;48.548;2.704;2024-01-10T12:14:18;3.03;;;1.50;;
74679;SDS011;63211;48.548;2.704;2024-01-10T12:16:45;4.25;;;1.83;;
74679;SDS011;63211;48.548;2.704;2024-01-10T12:19:13;4.22;;;1.50;;
74679;SDS011;63211;48.548;2.704;2024-01-10T12:21:40;3.03;;;1.60;;
74679;SDS011;63211;48.548;2.704;2024-01-10T12:24:07;2.35;;;1.40;;
74679;SDS011;63211;48.548;2.704;2024-01-10T12:26:33;4.32;;;1.60;;
74679;SDS011;63211;48.548;2.704;2024-01-10T12:29:01;5.80;;;1.80;;
74679;SDS011;63211;48.548;2.704;2024-01-10T12:31:29;4.55;;;1.70;;
74679;SDS011;63211;48.548;2.704;2024-01-10T12:33:56;3.22;;;1.77;;
74679;SDS011;63211;48.548;2.704;2024-01-10T12:36:25;3.10;;;1.88;;
74679;SDS011;63211;48.548;2.704;2024-01-10T12:38:51;5.95;;;1.92;;
74679;SDS011;63211;48.548;2.704;2024-01-10T12:41:19;4.35;;;1.60;;
74679;SDS011;63211;48.548;2.704;2024-01-10T12:43:48;4.90;;;1.70;;
74679;SDS011;63211;48.548;2.704;2024-01-10T12:46:16;5.65;;;2.33;;
74679;SDS011;63211;48.548;2.704;2024-01-10T12:48:42;3.58;;;1.88;;
74679;SDS011;63211;48.548;2.704;2024-01-10T12:51:10;4.63;;;1.70;;
74679;SDS011;63211;48.548;2.704;2024-01-10T12:53:39;3.22;;;1.50;;
74679;SDS011;63211;48.548;2.704;2024-01-10T12:56:07;4.80;;;1.95;;
74679;SDS011;63211;48.548;2.704;2024-01-10T12:58:38;6.03;;;2.33;;
74679;SDS011;63211;48.548;2.704;2024-01-10T13:01:07;3.28;;;1.50;;
74679;SDS011;63211;48.548;2.704;2024-01-10T13:03:34;3.67;;;1.90;;
74679;SDS011;63211;48.548;2.704;2024-01-10T13:06:01;4.28;;;1.63;;
74679;SDS011;63211;48.548;2.704;2024-01-10T13:08:27;2.72;;;1.80;;
74679;SDS011;63211;48.548;2.704;2024-01-10T13:10:55;4.78;;;2.10;;
74679;SDS011;63211;48.548;2.704;2024-01-10T13:13:22;4.05;;;1.42;;
74679;SDS011;63211;48.548;2.704;2024-01-10T13:15:48;4.25;;;1.85;;
74679;SDS011;63211;48.548;2.704;2024-01-10T13:18:16;4.38;;;1.55;;
74679;SDS011;63211;48.548;2.704;2024-01-10T13:20:43;3.75;;;1.83;;
74679;SDS011;63211;48.548;2.704;2024-01-10T13:23:10;3.05;;;1.77;;
74679;SDS011;63211;48.548;2.704;2024-01-10T13:25:37;3.90;;;1.77;;
74679;SDS011;63211;48.548;2.704;2024-01-10T13:28:05;4.05;;;1.60;;
74679;SDS011;63211;48.548;2.704;2024-01-10T13:30:32;3.72;;;2.00;;
74679;SDS011;63211;48.548;2.704;2024-01-10T13:32:59;3.45;;;1.27;;
74679;SDS011;63211;48.548;2.704;2024-01-10T13:35:26;3.22;;;1.77;;
74679;SDS011;63211;48.548;2.704;2024-01-10T13:37:53;3.50;;;1.73;;
74679;SDS011;63211;48.548;2.704;2024-01-10T13:40:19;3.75;;;2.00;;
74679;SDS011;63211;48.548;2.704;2024-01-10T13:42:49;3.83;;;1.77;;
74679;SDS011;63211;48.548;2.704;2024-01-10T13:45:17;3.58;;;1.67;;
74679;SDS011;63211;48.548;2.704;2024-01-10T13:47:45;3.22;;;1.80;;
74679;SDS011;63211;48.548;2.704;2024-01-10T13:50:12;2.67;;;1.48;;
74679;SDS011;63211;48.548;2.704;2024-01-10T13:52:39;3.03;;;1.58;;
74679;SDS011;63211;48.548;2.704;2024-01-10T13:55:05;3.47;;;1.95;;
74679;SDS011;63211;48.548;2.704;2024-01-10T13:57:34;2.78;;;1.60;;
74679;SDS011;63211;48.548;2.704;2024-01-10T14:00:01;4.65;;;2.08;;
74679;SDS011;63211;48.548;2.704;2024-01-10T14:02:31;3.17;;;1.85;;
74679;SDS011;63211;48.548;2.704;2024-01-10T14:04:58;4.25;;;1.60;;
74679;SDS011;63211;48.548;2.704;2024-01-10T14:07:24;5.15;;;2.17;;
74679;SDS011;63211;48.548;2.704;2024-01-10T14:09:51;2.85;;;1.33;;
74679;SDS011;63211;48.548;2.704;2024-01-10T14:12:19;3.22;;;1.63;;
74679;SDS011;63211;48.548;2.704;2024-01-10T14:14:46;3.70;;;1.80;;
74679;SDS011;63211;48.548;2.704;2024-01-10T14:17:13;3.78;;;1.92;;
74679;SDS011;63211;48.548;2.704;2024-01-10T14:19:41;3.92;;;1.83;;
74679;SDS011;63211;48.548;2.704;2024-01-10T14:22:09;4.20;;;1.60;;
74679;SDS011;63211;48.548;2.704;2024-01-10T14:24:35;4.30;;;1.80;;
74679;SDS011;63211;48.548;2.704;2024-01-10T14:27:03;4.57;;;1.90;;
74679;SDS011;63211;48.548;2.704;2024-01-10T14:29:30;3.33;;;1.73;;
74679;SDS011;63211;48.548;2.704;2024-01-10T14:31:58;3.20;;;1.73;;
74679;SDS011;63211;48.548;2.704;2024-01-10T14:34:25;3.17;;;1.67;;
74679;SDS011;63211;48.548;2.704;2024-01-10T14:36:52;2.78;;;1.42;;
74679;SDS011;63211;48.548;2.704;2024-01-10T14:39:19;3.28;;;1.50;;
74679;SDS011;63211;48.548;2.704;2024-01-10T14:41:46;2.53;;;1.58;;
74679;SDS011;63211;48.548;2.704;2024-01-10T14:44:12;3.50;;;1.70;;
74679;SDS011;63211;48.548;2.704;2024-01-10T14:46:39;3.45;;;1.55;;
74679;SDS011;63211;48.548;2.704;2024-01-10T14:49:05;3.60;;;1.85;;
74679;SDS011;63211;48.548;2.704;2024-01-10T14:51:32;3.08;;;1.88;;